Time;durP1;ratioP1;P1;durP2;ratioP2;P2;SDS_P1;SDS_P2;PMS_P1;PMS_P2;Temp;Humidity;BMP_temperature;BMP_pressure;BME280_temperature;BME280_humidity;BME280_pressure;Samples;Min_cycle;Max_cycle;Signal;HPM_P1;HPM_P2
2022/11/16 07:26:02;;;;;;;6.50;3.38;;;12.70;99.90;;;;;;1236859;23;20450;31
2022/11/16 07:29:57;;;;;;;10.55;3.60;;;12.90;99.90;;;;;;6103167;29;20056;-89
2022/11/16 07:33:14;;;;;;;6.28;3.15;;;13.00;99.90;;;;;;6092781;29;20056;-89
2022/11/16 07:37:39;;;;;;;4.50;2.58;;;13.10;99.90;;;;;;6099447;29;20048;-89
2022/11/16 07:44:30;;;;;;;3.80;2.15;;;13.60;99.90;;;;;;6090623;29;20044;-87
2022/11/16 07:47:43;;;;;;;10.82;2.58;;;13.30;99.90;;;;;;6095426;29;20422;-87
2022/11/16 07:50:49;;;;;;;6.93;1.92;;;13.30;99.90;;;;;;6109035;29;20055;-87
2022/11/16 07:53:55;;;;;;;6.53;2.33;;;13.40;99.90;;;;;;6105064;29;20056;-86
2022/11/16 07:56:57;;;;;;;3.35;1.95;;;13.30;99.90;;;;;;6104366;29;20627;-87
2022/11/16 08:00:01;;;;;;;3.72;1.63;;;13.30;99.90;;;;;;6094064;29;20188;-86
2022/11/16 08:03:15;;;;;;;4.50;1.20;;;13.20;99.90;;;;;;6105342;29;20111;-87
2022/11/16 08:06:37;;;;;;;3.58;1.50;;;13.30;99.90;;;;;;6103415;29;20052;-86
2022/11/16 08:09:44;;;;;;;4.78;2.13;;;13.50;99.90;;;;;;6103710;29;20048;-86
2022/11/16 08:12:48;;;;;;;15.40;3.10;;;13.40;99.90;;;;;;6102615;29;20398;-86
2022/11/16 08:16:02;;;;;;;2.78;1.58;;;13.30;99.90;;;;;;6093280;29;20048;-86
2022/11/16 08:19:07;;;;;;;6.35;2.08;;;13.50;99.90;;;;;;6103601;29;20058;-87
2022/11/16 08:22:12;;;;;;;10.40;2.55;;;13.50;99.90;;;;;;6103616;29;20048;-86
2022/11/16 08:25:19;;;;;;;12.32;3.28;;;13.40;99.90;;;;;;6103986;29;20077;-87
2022/11/16 08:28:24;;;;;;;3.67;2.35;;;13.70;99.90;;;;;;6103707;29;20048;-86
2022/11/16 08:31:51;;;;;;;8.90;2.72;;;14.00;99.90;;;;;;6104580;29;20036;-86
2022/11/16 08:39:01;;;;;;;3.22;2.03;;;14.70;99.90;;;;;;6104103;29;20491;-85
2022/11/16 08:50:09;;;;;;;4.68;1.92;;;14.90;99.90;;;;;;5907821;30;20548;-84
2022/11/16 08:54:08;;;;;;;3.72;1.77;;;15.00;99.90;;;;;;5979219;29;20145;-84
2022/11/16 08:57:13;;;;;;;2.63;1.27;;;14.90;99.90;;;;;;5974329;29;20078;-84
2022/11/16 09:00:43;;;;;;;2.25;1.13;;;15.40;99.90;;;;;;5974662;29;20058;-86
2022/11/16 09:20:20;;;;;;;5.30;1.25;;;15.80;99.90;;;;;;5872792;30;20139;-84
2022/11/16 09:23:25;;;;;;;2.42;1.00;;;15.90;99.90;;;;;;6339529;23;20138;-87
2022/11/16 09:55:22;;;;;;;3.20;0.60;;;15.70;99.90;;;;;;5906825;30;20527;-87
2022/11/16 09:59:12;;;;;;;5.72;0.43;;;16.00;99.90;;;;;;5967161;29;20436;-87
2022/11/16 10:09:16;;;;;;;1.48;0.50;;;17.70;99.90;;;;;;6058112;29;20295;-85
2022/11/16 10:12:25;;;;;;;1.95;0.47;;;17.90;99.90;;;;;;6052961;29;20052;-86
2022/11/16 10:15:41;;;;;;;1.80;0.40;;;18.30;99.90;;;;;;6059976;29;20206;-85
2022/11/16 10:18:51;;;;;;;1.05;0.50;;;18.60;99.90;;;;;;6055344;29;20132;-85
2022/11/16 10:22:01;;;;;;;1.30;0.32;;;19.20;99.90;;;;;;6055420;29;20139;-86
2022/11/16 10:25:13;;;;;;;5.72;0.75;;;19.60;99.90;;;;;;6055302;29;20137;-85
2022/11/16 10:28:50;;;;;;;2.58;0.60;;;20.00;99.90;;;;;;6055023;29;20129;-85
2022/11/16 10:32:14;;;;;;;8.57;0.65;;;20.00;99.90;;;;;;6069906;29;20052;-87
2022/11/16 10:35:24;;;;;;;2.53;0.30;;;19.70;99.90;;;;;;6082192;29;20143;-85
2022/11/16 10:38:29;;;;;;;1.55;0.22;;;19.40;99.90;;;;;;6079352;29;20603;-85
2022/11/16 10:41:39;;;;;;;1.02;0.43;;;19.20;99.90;;;;;;6081018;29;20088;-85
2022/11/16 10:44:45;;;;;;;6.45;0.60;;;18.90;99.90;;;;;;6071051;29;20104;-86
2022/11/16 10:47:53;;;;;;;1.80;0.38;;;18.60;99.90;;;;;;6081129;29;20112;-85
2022/11/16 10:50:55;;;;;;;3.00;0.63;;;18.50;99.90;;;;;;6088487;29;20076;-85
2022/11/16 10:53:59;;;;;;;1.80;0.50;;;18.80;99.90;;;;;;6081430;29;20048;-85
2022/11/16 10:57:05;;;;;;;2.97;0.43;;;19.50;99.90;;;;;;6081493;29;20049;-86
2022/11/16 11:00:12;;;;;;;5.90;1.45;;;20.30;99.90;;;;;;6080145;29;20056;-86
2022/11/16 11:03:28;;;;;;;2.77;0.20;;;21.40;99.90;;;;;;6081429;29;20140;-85
2022/11/16 11:06:32;;;;;;;9.32;1.45;;;22.20;99.90;;;;;;6080472;29;20147;-86
2022/11/16 11:09:35;;;;;;;2.22;0.60;;;22.30;99.90;;;;;;6082511;29;20072;-85
2022/11/16 11:12:37;;;;;;;3.22;0.65;;;22.10;99.90;;;;;;6084378;29;20059;-86
2022/11/16 11:15:41;;;;;;;5.65;0.68;;;21.60;99.80;;;;;;6083179;29;20085;-86
2022/11/16 11:18:44;;;;;;;2.88;0.90;;;21.10;99.40;;;;;;6082662;29;20087;-86
2022/11/16 11:21:47;;;;;;;4.53;1.40;;;20.40;98.70;;;;;;6082313;29;20048;-86
2022/11/16 11:24:49;;;;;;;2.92;0.30;;;19.90;99.20;;;;;;6103528;29;20072;-85
2022/11/16 11:28:03;;;;;;;5.78;0.55;;;19.60;99.60;;;;;;6107056;29;20087;-86
2022/11/16 11:31:07;;;;;;;3.72;0.40;;;19.40;99.70;;;;;;6084838;29;20131;-86
2022/11/16 11:34:17;;;;;;;2.88;0.50;;;19.30;99.50;;;;;;6085020;29;20524;-87
2022/11/16 11:37:22;;;;;;;0.38;0.20;;;19.10;99.80;;;;;;6082590;29;20180;-85
2022/11/16 11:40:25;;;;;;;3.15;0.30;;;19.40;99.60;;;;;;6082764;29;20045;-85
2022/11/16 11:43:28;;;;;;;0.60;0.22;;;19.60;99.30;;;;;;6082520;29;20059;-85
2022/11/16 11:46:36;;;;;;;6.70;0.40;;;19.80;99.30;;;;;;6082961;29;20533;-84
2022/11/16 11:49:48;;;;;;;2.00;0.38;;;20.20;99.10;;;;;;6083420;29;20044;-85
2022/11/16 11:53:01;;;;;;;0.88;0.50;;;20.60;98.60;;;;;;6084488;29;20127;-85
2022/11/16 11:56:03;;;;;;;0.38;0.10;;;21.00;98.00;;;;;;6083014;29;20131;-85
2022/11/16 11:59:05;;;;;;;2.70;0.43;;;21.20;96.60;;;;;;6081832;29;20594;-85
2022/11/16 12:02:22;;;;;;;0.68;0.30;;;21.40;94.30;;;;;;6090075;29;20100;-85
2022/11/16 12:05:50;;;;;;;4.07;0.40;;;21.40;95.30;;;;;;6102219;29;20063;-85
2022/11/16 12:09:09;;;;;;;4.38;0.43;;;21.40;95.20;;;;;;6093988;29;20523;-85
2022/11/16 12:12:23;;;;;;;11.70;0.60;;;21.60;94.90;;;;;;6084654;29;20140;-86
2022/11/16 12:15:42;;;;;;;1.42;0.30;;;21.70;95.30;;;;;;6089582;29;20148;-86
2022/11/16 12:19:10;;;;;;;3.25;1.10;;;22.00;95.80;;;;;;6113691;29;20123;-85
2022/11/16 12:22:27;;;;;;;6.25;0.70;;;22.40;96.20;;;;;;6117139;29;20418;-87
2022/11/16 12:25:43;;;;;;;3.83;1.15;;;22.70;94.60;;;;;;6083435;29;20115;-85
2022/11/16 12:29:08;;;;;;;3.75;0.43;;;22.70;94.40;;;;;;6080914;29;20048;-84
2022/11/16 12:32:39;;;;;;;3.25;0.30;;;22.90;94.30;;;;;;6078452;29;20048;-87
2022/11/16 12:36:02;;;;;;;4.47;0.38;;;22.70;94.20;;;;;;6062923;29;20614;-86
2022/11/16 12:39:48;;;;;;;1.08;0.20;;;22.50;93.70;;;;;;6079940;29;20532;-85
2022/11/16 12:42:59;;;;;;;4.35;3.00;;;22.50;93.90;;;;;;6080060;29;20072;-85
2022/11/16 12:46:10;;;;;;;4.53;2.55;;;22.40;94.40;;;;;;6049338;29;20073;-86
2022/11/16 12:53:44;;;;;;;6.35;1.17;;;22.10;93.70;;;;;;6044867;29;20092;-85
2022/11/16 12:57:15;;;;;;;5.70;2.63;;;21.60;93.60;;;;;;6057461;29;20063;-86
2022/11/16 13:00:26;;;;;;;2.63;0.52;;;21.40;93.90;;;;;;6045986;29;20523;-87
2022/11/16 13:03:49;;;;;;;3.47;0.60;;;21.00;94.00;;;;;;6055835;29;20112;-88
2022/11/16 13:11:11;;;;;;;4.43;0.88;;;20.30;95.70;;;;;;6066992;29;20434;-85
2022/11/16 13:14:49;;;;;;;8.02;1.27;;;20.30;95.70;;;;;;6046647;29;20056;-86
2022/11/16 13:22:01;;;;;;;1.90;0.65;;;20.60;95.60;;;;;;6055087;29;20037;-86
2022/11/16 15:43:32;;;;;;;4.00;0.40;;;15.20;94.50;;;;;;6024456;29;20103;-87
2022/11/16 17:31:10;;;;;;;4.05;0.77;;;13.60;97.70;;;;;;6133117;29;20048;-88
2022/11/16 17:38:45;;;;;;;2.60;0.93;;;13.20;98.10;;;;;;6075218;29;20048;-88
2022/11/16 17:41:47;;;;;;;3.35;0.70;;;13.30;98.20;;;;;;6078227;29;20044;-86
2022/11/16 18:38:14;;;;;;;;;;;;;;;;;;;;;
2022/11/16 18:41:28;;;;;;;6.70;1.33;;;13.30;99.00;;;;;;6032906;29;20058;-88
2022/11/16 18:48:34;;;;;;;8.32;3.22;;;13.20;99.20;;;;;;6030368;29;20071;-88
2022/11/16 19:03:29;;;;;;;4.70;1.05;;;12.60;99.50;;;;;;5900355;30;20062;-88
2022/11/16 20:04:32;;;;;;;4.32;1.10;;;10.90;99.90;;;;;;6104155;29;20433;-84
2022/11/16 20:07:36;;;;;;;2.63;0.80;;;10.90;99.90;;;;;;6105729;29;20504;-84
2022/11/16 20:10:38;;;;;;;1.67;0.73;;;10.80;99.90;;;;;;6105846;29;20058;-84
2022/11/16 20:13:40;;;;;;;1.90;1.10;;;10.80;99.90;;;;;;6104913;29;20195;-84
2022/11/16 20:16:45;;;;;;;6.90;1.35;;;10.80;99.90;;;;;;6110779;29;20056;-84
2022/11/16 20:19:48;;;;;;;3.85;0.93;;;10.80;99.90;;;;;;6120232;29;20111;-85
2022/11/16 20:22:50;;;;;;;5.80;1.60;;;10.80;99.90;;;;;;6130573;29;20420;-85
2022/11/16 20:25:52;;;;;;;6.53;2.00;;;10.80;99.90;;;;;;6128652;29;20728;-84
2022/11/16 20:28:54;;;;;;;5.93;1.70;;;10.80;99.90;;;;;;6128523;29;20051;-85
2022/11/16 20:31:56;;;;;;;2.83;1.23;;;10.90;99.90;;;;;;6128628;29;20048;-84
2022/11/16 20:34:59;;;;;;;2.88;1.08;;;10.90;99.90;;;;;;6128649;29;20099;-85
2022/11/16 20:38:01;;;;;;;4.10;0.80;;;10.90;99.90;;;;;;6127270;29;20052;-84
2022/11/16 20:41:10;;;;;;;1.67;0.80;;;11.00;99.90;;;;;;6105358;29;20046;-84
2022/11/16 20:44:17;;;;;;;1.25;0.60;;;10.90;99.90;;;;;;6105235;29;20048;-84
2022/11/16 20:47:18;;;;;;;10.52;4.05;;;11.00;99.90;;;;;;6101965;29;20084;-85
2022/11/16 20:50:21;;;;;;;2.47;1.17;;;11.00;99.90;;;;;;6122792;29;20050;-84
2022/11/16 20:53:24;;;;;;;2.30;1.17;;;11.10;99.90;;;;;;6128497;29;20421;-85
2022/11/16 20:56:26;;;;;;;5.18;1.92;;;11.10;99.90;;;;;;6128843;29;20040;-84
2022/11/16 20:59:29;;;;;;;3.95;0.80;;;11.20;99.90;;;;;;6113887;29;20051;-84
2022/11/16 21:02:33;;;;;;;2.90;1.30;;;11.30;99.90;;;;;;6105183;29;20052;-85
2022/11/16 21:05:42;;;;;;;2.40;0.80;;;11.40;99.90;;;;;;6104947;29;20107;-84
2022/11/16 21:08:43;;;;;;;0.82;0.80;;;11.50;99.90;;;;;;6104670;29;20052;-85
2022/11/16 21:15:09;;;;;;;3.97;0.93;;;11.60;99.90;;;;;;6105757;29;20048;-85
2022/11/16 21:18:11;;;;;;;2.15;0.95;;;11.60;99.90;;;;;;6113211;29;20052;-84
2022/11/16 21:21:15;;;;;;;3.00;0.70;;;11.70;99.90;;;;;;6127853;29;20189;-84
2022/11/16 21:24:17;;;;;;;3.15;1.05;;;11.80;99.90;;;;;;6130556;29;20051;-84
2022/11/16 21:27:19;;;;;;;4.47;1.13;;;11.90;99.90;;;;;;6133136;29;20055;-83
2022/11/16 21:30:21;;;;;;;8.70;2.25;;;11.80;99.90;;;;;;6133327;29;20051;-84
2022/11/16 21:33:23;;;;;;;5.28;1.75;;;11.80;99.90;;;;;;6132577;29;20047;-85
2022/11/16 21:36:27;;;;;;;8.07;1.85;;;11.90;99.90;;;;;;6133018;29;20067;-84
2022/11/16 21:39:29;;;;;;;8.35;2.72;;;11.90;99.90;;;;;;6132047;29;20436;-84
2022/11/16 21:42:31;;;;;;;3.15;0.95;;;12.00;99.90;;;;;;6132883;29;20054;-85
2022/11/16 21:45:34;;;;;;;19.05;6.53;;;12.00;99.90;;;;;;6132509;29;20066;-84
2022/11/16 21:48:36;;;;;;;8.90;3.13;;;12.00;99.90;;;;;;6119318;29;20525;-85
2022/11/16 21:51:39;;;;;;;1.45;0.80;;;12.00;99.90;;;;;;6109879;29;20058;-84
2022/11/16 21:54:55;;;;;;;7.35;1.02;;;12.00;99.90;;;;;;6110232;29;20048;-83
2022/11/16 21:57:57;;;;;;;1.45;0.50;;;12.00;99.90;;;;;;6108803;29;20080;-86
2022/11/16 22:01:00;;;;;;;5.90;0.95;;;11.90;99.90;;;;;;6108371;29;20048;-85
2022/11/16 22:07:35;;;;;;;5.88;1.77;;;12.00;99.90;;;;;;6073900;29;20048;-84
2022/11/16 22:10:37;;;;;;;9.50;1.87;;;12.00;99.90;;;;;;6108922;29;20060;-84
2022/11/16 22:13:40;;;;;;;9.18;1.95;;;12.00;99.90;;;;;;6107887;29;20056;-84
2022/11/16 22:16:41;;;;;;;3.72;1.10;;;12.00;99.90;;;;;;6108762;29;20040;-84
2022/11/16 22:19:43;;;;;;;8.25;1.52;;;11.90;99.90;;;;;;6116314;29;20048;-85
2022/11/16 22:22:46;;;;;;;8.93;0.82;;;11.90;99.90;;;;;;6109086;29;20645;-86
2022/11/16 22:25:48;;;;;;;1.58;0.80;;;12.00;99.90;;;;;;6120879;29;20119;-82
2022/11/16 22:28:52;;;;;;;6.07;1.10;;;12.00;99.90;;;;;;6134554;29;20081;-83
2022/11/16 22:31:53;;;;;;;6.05;0.82;;;12.10;99.90;;;;;;6117235;29;20055;-85
2022/11/16 22:34:55;;;;;;;2.85;0.80;;;12.00;99.90;;;;;;6127941;29;20140;-85
2022/11/16 22:37:58;;;;;;;2.65;0.80;;;12.10;99.90;;;;;;6131439;29;20058;-86
2022/11/16 22:41:00;;;;;;;5.22;1.15;;;12.10;99.90;;;;;;6132297;29;20047;-84
2022/11/16 22:44:02;;;;;;;8.70;1.80;;;12.10;99.90;;;;;;6132251;29;20048;-85
2022/11/16 22:47:04;;;;;;;7.00;0.82;;;12.10;99.90;;;;;;6124703;29;20060;-85
2022/11/16 22:50:06;;;;;;;3.30;1.58;;;12.20;99.90;;;;;;6113928;29;20048;-85
2022/11/16 22:53:09;;;;;;;5.50;0.90;;;12.20;99.90;;;;;;6106703;29;20056;-85
2022/11/16 22:56:12;;;;;;;2.08;0.80;;;12.30;99.90;;;;;;6108373;29;20467;-85
2022/11/16 22:59:13;;;;;;;12.13;1.98;;;12.30;99.90;;;;;;6108765;29;20427;-85
2022/11/16 23:02:15;;;;;;;5.03;1.23;;;12.10;99.90;;;;;;6108030;29;20050;-85
2022/11/16 23:05:17;;;;;;;3.05;0.95;;;12.10;99.90;;;;;;6109629;29;20060;-82
2022/11/16 23:08:23;;;;;;;1.60;1.27;;;12.00;99.90;;;;;;6057721;29;20135;-86
2022/11/16 23:18:05;;;;;;;10.93;1.10;;;11.40;99.90;;;;;;6108883;29;20048;-86
2022/11/16 23:27:54;;;;;;;8.98;1.35;;;11.40;99.90;;;;;;6109431;29;22344;-85
2022/11/16 23:30:56;;;;;;;6.65;0.80;;;11.40;99.90;;;;;;6110424;29;20399;-85
2022/11/16 23:33:58;;;;;;;10.45;1.42;;;11.40;99.90;;;;;;6109813;29;20048;-86
2022/11/16 23:37:02;;;;;;;4.22;1.17;;;11.40;99.90;;;;;;6110089;29;20043;-85
2022/11/16 23:40:06;;;;;;;4.18;1.08;;;11.50;99.90;;;;;;6112120;29;20047;-85
2022/11/16 23:46:31;;;;;;;2.85;0.68;;;11.40;99.90;;;;;;6123906;29;20056;-82
2022/11/16 23:49:33;;;;;;;3.42;1.00;;;11.50;99.90;;;;;;6115303;29;20147;-84
2022/11/16 23:52:34;;;;;;;5.57;0.93;;;11.60;99.90;;;;;;6107242;29;20048;-84
2022/11/16 23:55:39;;;;;;;4.07;1.48;;;11.60;99.90;;;;;;6106984;29;20161;-84
2022/11/16 23:58:41;;;;;;;4.75;1.10;;;11.80;99.90;;;;;;6107055;29;20048;-84
